createdAt,value
2022-10-19T00:00:02.953Z,100737.21
2022-10-19T00:02:57.414Z,100746.27
2022-10-19T00:05:30.911Z,100741.46
2022-10-19T00:08:03.588Z,100730.10
2022-10-19T00:10:36.477Z,100722.98
2022-10-19T00:13:08.943Z,100730.10
2022-10-19T00:15:45.557Z,100728.42
2022-10-19T00:18:17.984Z,100727.39
2022-10-19T00:20:50.427Z,100724.39
2022-10-19T00:23:23.300Z,100720.41
2022-10-19T00:26:00.038Z,100715.44
2022-10-19T00:28:33.334Z,100686.77
2022-10-19T00:31:13.223Z,100709.13
2022-10-19T00:33:47.344Z,100705.23
2022-10-19T00:36:25.878Z,100702.11
2022-10-19T00:39:00.115Z,100692.15
2022-10-19T00:41:34.768Z,100685.64
2022-10-19T00:44:16.771Z,100687.21
2022-10-19T00:46:50.864Z,100679.90
2022-10-19T00:49:29.387Z,100665.33
2022-10-19T00:52:08.582Z,100671.42
2022-10-19T00:54:43.662Z,100669.55
2022-10-19T00:57:16.732Z,100668.88
2022-10-19T00:59:50.023Z,100661.25
2022-10-19T01:02:22.562Z,100660.21
2022-10-19T01:04:55.760Z,100657.45
2022-10-19T01:07:29.024Z,100661.75
2022-10-19T01:10:02.502Z,100656.72
2022-10-19T01:12:57.634Z,100658.10
2022-10-19T01:15:38.092Z,100660.08
2022-10-19T01:18:13.048Z,100661.21
2022-10-19T01:21:04.928Z,100662.55
2022-10-19T01:24:07.370Z,100658.27
2022-10-19T01:27:09.325Z,100658.96
2022-10-19T01:29:56.502Z,100661.05
2022-10-19T01:32:49.572Z,100650.90
2022-10-19T01:35:31.079Z,100653.77
2022-10-19T01:38:37.158Z,100661.48
2022-10-19T01:41:21.330Z,100656.38
2022-10-19T01:44:26.047Z,100653.21
2022-10-19T01:47:06.405Z,100643.30
2022-10-19T01:50:05.244Z,100654.50
2022-10-19T01:52:39.409Z,100647.42
2022-10-19T01:55:14.883Z,100655.96
2022-10-19T01:57:52.269Z,100652.48
2022-10-19T02:00:27.658Z,100638.08
2022-10-19T02:03:02.142Z,100624.94
2022-10-19T02:05:37.920Z,100635.06
2022-10-19T02:08:19.139Z,100636.08
2022-10-19T02:10:53.831Z,100635.25
2022-10-19T02:13:29.021Z,100631.99
2022-10-19T02:16:07.549Z,100637.34
2022-10-19T02:18:46.802Z,100628.51
2022-10-19T02:21:19.964Z,100635.21
2022-10-19T02:23:54.173Z,100638.64
2022-10-19T02:26:27.245Z,100631.93
2022-10-19T02:29:00.736Z,100622.50
2022-10-19T02:31:33.708Z,100626.09
2022-10-19T02:34:06.259Z,100629.48
2022-10-19T02:36:39.204Z,100626.70
2022-10-19T02:39:12.629Z,100625.70
2022-10-19T02:41:50.540Z,100621.26
2022-10-19T02:44:34.501Z,100627.45
2022-10-19T02:47:19.710Z,100624.60
2022-10-19T02:49:52.928Z,100623.33
2022-10-19T02:52:25.842Z,100630.84
2022-10-19T02:54:58.774Z,100631.90
2022-10-19T02:57:33.230Z,100633.62
2022-10-19T03:00:08.840Z,100631.85
2022-10-19T03:02:41.667Z,100635.33
2022-10-19T03:05:15.481Z,100636.30
2022-10-19T03:07:48.772Z,100624.08
2022-10-19T03:10:21.919Z,100625.78
2022-10-19T03:12:54.960Z,100633.64
2022-10-19T03:15:30.148Z,100637.29
2022-10-19T03:18:03.147Z,100629.02
2022-10-19T03:20:36.637Z,100641.95
2022-10-19T03:23:14.026Z,100640.42
2022-10-19T03:25:46.944Z,100640.79
2022-10-19T03:28:20.157Z,100642.44
2022-10-19T03:30:53.005Z,100637.58
2022-10-19T03:33:26.724Z,100632.04
2022-10-19T03:36:18.263Z,100640.55
2022-10-19T03:38:53.384Z,100638.38
2022-10-19T03:41:28.327Z,100629.35
2022-10-19T03:44:01.519Z,100643.01
2022-10-19T03:46:36.106Z,100633.95
2022-10-19T03:49:09.913Z,100641.74
2022-10-19T03:51:42.464Z,100637.86
2022-10-19T03:54:19.347Z,100626.31
2022-10-19T03:56:52.966Z,100627.71
2022-10-19T03:59:26.062Z,100626.05
2022-10-19T04:01:58.889Z,100623.27
2022-10-19T04:04:32.315Z,100617.95
2022-10-19T04:07:05.231Z,100628.58
2022-10-19T04:09:37.707Z,100612.63
2022-10-19T04:12:11.395Z,100618.73
2022-10-19T04:14:56.788Z,100620.63
2022-10-19T04:17:32.084Z,100623.23
2022-10-19T04:20:05.168Z,100619.69
2022-10-19T04:22:38.308Z,100610.20
2022-10-19T04:25:13.433Z,100603.02
2022-10-19T04:27:49.744Z,100609.73
2022-10-19T04:30:23.408Z,100602.84
2022-10-19T04:32:56.700Z,100600.57
2022-10-19T04:35:30.140Z,100610.95
2022-10-19T04:38:02.969Z,100613.23
2022-10-19T04:40:38.447Z,100612.36
2022-10-19T04:43:11.639Z,100603.64
2022-10-19T04:45:44.444Z,100614.32
2022-10-19T04:48:17.614Z,100615.08
2022-10-19T04:50:50.903Z,100612.77
2022-10-19T04:53:25.873Z,100605.44
2022-10-19T04:55:58.672Z,100616.83
2022-10-19T04:58:31.544Z,100611.81
2022-10-19T05:01:11.385Z,100609.63
2022-10-19T05:03:45.102Z,100615.32
2022-10-19T05:06:18.846Z,100613.08
2022-10-19T05:08:52.748Z,100606.30
2022-10-19T05:11:31.009Z,100606.56
2022-10-19T05:14:03.862Z,100606.98
2022-10-19T05:16:40.271Z,100607.40
2022-10-19T05:19:17.287Z,100608.34
2022-10-19T05:21:51.308Z,100620.66
2022-10-19T05:24:24.427Z,100623.13
2022-10-19T05:26:57.471Z,100622.67
2022-10-19T05:29:30.608Z,100623.80
2022-10-19T05:32:03.915Z,100611.98
2022-10-19T05:34:37.218Z,100618.55
2022-10-19T05:37:11.431Z,100614.48
2022-10-19T05:39:44.612Z,100627.33
2022-10-19T05:42:18.158Z,100625.39
2022-10-19T05:44:50.830Z,100627.77
2022-10-19T05:47:27.336Z,100614.45
2022-10-19T05:50:04.937Z,100627.50
2022-10-19T05:52:37.916Z,100630.13
2022-10-19T05:55:11.526Z,100633.11
2022-10-19T05:57:44.483Z,100625.95
2022-10-19T06:00:17.866Z,100634.83
2022-10-19T06:02:54.685Z,100636.98
2022-10-19T06:05:32.890Z,100638.55
2022-10-19T06:08:05.934Z,100642.09
2022-10-19T06:10:38.938Z,100643.27
2022-10-19T06:13:12.499Z,100639.96
2022-10-19T06:15:45.910Z,100637.51
2022-10-19T06:18:18.847Z,100623.83
2022-10-19T06:20:52.266Z,100621.08
2022-10-19T06:23:25.414Z,100639.81
2022-10-19T06:25:58.233Z,100636.54
2022-10-19T06:28:31.094Z,100632.70
2022-10-19T06:31:07.093Z,100623.46
2022-10-19T06:33:47.286Z,100626.62
2022-10-19T06:36:25.005Z,100615.32
2022-10-19T06:39:00.249Z,100625.64
2022-10-19T06:41:34.526Z,100624.83
2022-10-19T06:44:24.029Z,100613.42
2022-10-19T06:46:57.102Z,100619.04
2022-10-19T06:49:30.513Z,100620.55
2022-10-19T06:52:04.350Z,100614.70
2022-10-19T06:54:38.039Z,100607.43
2022-10-19T06:57:10.859Z,100604.80
2022-10-19T06:59:43.717Z,100612.69
2022-10-19T07:02:16.911Z,100606.81
2022-10-19T07:04:50.313Z,100611.01
2022-10-19T07:07:23.827Z,100610.82
2022-10-19T07:09:57.127Z,100599.52
2022-10-19T07:12:30.123Z,100598.28
2022-10-19T07:15:03.493Z,100601.23
2022-10-19T07:17:36.657Z,100589.75
2022-10-19T07:20:11.307Z,100600.61
2022-10-19T07:22:44.313Z,100599.18
2022-10-19T07:25:17.239Z,100599.42
2022-10-19T07:27:50.336Z,100602.42
2022-10-19T07:30:23.470Z,100591.04
2022-10-19T07:32:56.558Z,100586.58
2022-10-19T07:35:30.377Z,100590.20
2022-10-19T07:38:03.377Z,100585.86
2022-10-19T07:40:37.093Z,100576.96
2022-10-19T07:43:10.475Z,100576.50
2022-10-19T07:45:43.608Z,100580.89
2022-10-19T07:48:16.444Z,100582.26
2022-10-19T07:50:52.761Z,100577.62
2022-10-19T07:53:27.037Z,100581.87
2022-10-19T07:56:10.034Z,100584.73
2022-10-19T07:58:43.021Z,100584.67
2022-10-19T08:01:20.309Z,100577.73
2022-10-19T08:04:43.229Z,100578.31
2022-10-19T08:06:52.253Z,100567.75
2022-10-19T08:09:51.669Z,100573.17
2022-10-19T08:12:20.411Z,100572.64
2022-10-19T08:14:53.261Z,100571.17
2022-10-19T08:17:26.204Z,100562.19
2022-10-19T08:19:59.453Z,100558.93
2022-10-19T08:22:32.652Z,100556.36
2022-10-19T08:25:05.930Z,100557.55
2022-10-19T08:27:39.128Z,100552.20
2022-10-19T08:30:12.775Z,100551.86
2022-10-19T08:32:45.607Z,100549.02
2022-10-19T08:35:18.893Z,100541.62
2022-10-19T08:37:53.075Z,100543.57
2022-10-19T08:40:29.144Z,100548.48
2022-10-19T08:43:25.255Z,100550.64
2022-10-19T08:46:17.011Z,100550.04
2022-10-19T08:48:50.332Z,100542.96
2022-10-19T08:51:24.232Z,100547.76
2022-10-19T08:54:02.472Z,100546.37
2022-10-19T08:56:51.117Z,100535.26
2022-10-19T08:59:42.981Z,100522.40
2022-10-19T09:02:20.522Z,100523.93
2022-10-19T09:05:03.797Z,100541.98
2022-10-19T09:07:46.481Z,100538.80
2022-10-19T09:10:25.986Z,100542.40
2022-10-19T09:13:11.316Z,100541.29
2022-10-19T09:15:45.747Z,100541.61
2022-10-19T09:18:28.445Z,100544.17
2022-10-19T09:21:17.705Z,100549.15
2022-10-19T09:23:56.386Z,100547.89
2022-10-19T09:26:33.879Z,100549.05
2022-10-19T09:29:24.457Z,100552.81
2022-10-19T09:32:00.860Z,100555.85
2022-10-19T09:35:08.109Z,100550.87
2022-10-19T09:37:46.836Z,100545.27
2022-10-19T09:40:27.920Z,100534.40
2022-10-19T09:43:11.508Z,100528.39
2022-10-19T09:46:18.737Z,100536.10
2022-10-19T09:48:55.855Z,100523.73
2022-10-19T09:51:28.813Z,100527.08
2022-10-19T09:54:01.576Z,100513.15
2022-10-19T09:56:41.509Z,100527.61
2022-10-19T09:59:25.138Z,100534.04
2022-10-19T10:02:19.444Z,100538.05
2022-10-19T10:05:22.541Z,100538.02
2022-10-19T10:07:58.097Z,100535.30
2022-10-19T10:10:44.681Z,100530.93
2022-10-19T10:13:22.785Z,100521.84
2022-10-19T10:16:02.474Z,100519.23
2022-10-19T10:18:40.334Z,100514.44
2022-10-19T10:21:26.678Z,100512.45
2022-10-19T10:24:26.943Z,100509.98
2022-10-19T10:27:02.319Z,100506.85
2022-10-19T10:29:37.203Z,100507.60
2022-10-19T10:32:11.356Z,100507.27
2022-10-19T10:35:06.480Z,100504.04
2022-10-19T10:37:43.220Z,100509.99
2022-10-19T10:40:31.887Z,100507.83
2022-10-19T10:43:17.290Z,100497.92
2022-10-19T10:45:53.626Z,100503.18
2022-10-19T10:48:54.025Z,100486.36
2022-10-19T10:51:52.909Z,100489.98
2022-10-19T10:54:33.668Z,100491.48
2022-10-19T10:57:16.115Z,100485.60
2022-10-19T11:00:30.439Z,100492.83
2022-10-19T11:03:23.825Z,100495.02
2022-10-19T11:06:03.317Z,100477.67
2022-10-19T11:08:38.897Z,100470.69
2022-10-19T11:11:32.023Z,100477.63
2022-10-19T11:14:38.655Z,100473.98
2022-10-19T11:17:21.966Z,100470.67
2022-10-19T11:19:55.777Z,100463.54
2022-10-19T11:22:42.660Z,100458.14
2022-10-19T11:25:36.910Z,100446.65
2022-10-19T11:28:31.448Z,100450.64
2022-10-19T11:31:06.537Z,100458.32
2022-10-19T11:33:47.534Z,100455.23
2022-10-19T11:36:45.177Z,100456.54
2022-10-19T11:39:38.747Z,100459.48
2022-10-19T11:42:11.443Z,100447.94
2022-10-19T11:45:13.684Z,100457.48
2022-10-19T11:48:16.778Z,100457.44
2022-10-19T11:50:58.972Z,100456.11
2022-10-19T11:53:55.198Z,100460.11
2022-10-19T11:56:58.045Z,100467.88
2022-10-19T12:00:14.270Z,100467.65
2022-10-19T12:03:04.183Z,100462.98
2022-10-19T12:06:10.102Z,100466.52
2022-10-19T12:09:19.386Z,100470.38
2022-10-19T12:12:22.054Z,100476.95
2022-10-19T12:15:24.198Z,100476.43
2022-10-19T12:18:01.717Z,100467.77
2022-10-19T12:20:51.631Z,100481.27
2022-10-19T12:23:40.836Z,100481.83
2022-10-19T12:28:56.001Z,100479.02
2022-10-19T12:31:30.560Z,100487.18
2022-10-19T12:34:31.968Z,100483.73
2022-10-19T12:37:12.532Z,100485.92
2022-10-19T12:39:51.203Z,100480.34
2022-10-19T12:42:52.162Z,100482.41
2022-10-19T12:45:36.848Z,100475.95
2022-10-19T12:48:16.164Z,100478.40
2022-10-19T12:50:58.506Z,100475.23
2022-10-19T12:53:48.202Z,100462.44
2022-10-19T12:56:24.880Z,100475.27
2022-10-19T12:59:01.830Z,100484.85
2022-10-19T13:01:36.525Z,100495.80
2022-10-19T13:04:21.259Z,100500.97
2022-10-19T13:07:03.899Z,100500.17
2022-10-19T13:09:48.906Z,100492.92
2022-10-19T13:12:23.645Z,100490.76
2022-10-19T13:15:05.010Z,100485.79
2022-10-19T13:17:37.876Z,100484.06
2022-10-19T13:20:19.650Z,100478.52
2022-10-19T13:23:03.870Z,100482.94
2022-10-19T13:25:40.168Z,100478.05
2022-10-19T13:28:19.203Z,100478.29
2022-10-19T13:30:52.130Z,100473.44
2022-10-19T13:33:29.206Z,100470.09
2022-10-19T13:36:04.553Z,100466.27
2022-10-19T13:39:08.582Z,100473.80
2022-10-19T13:41:40.914Z,100459.02
2022-10-19T13:44:14.201Z,100466.04
2022-10-19T13:47:15.667Z,100462.76
2022-10-19T13:49:50.802Z,100460.30
2022-10-19T13:52:25.922Z,100464.66
2022-10-19T13:55:36.468Z,100466.67
2022-10-19T13:58:18.031Z,100453.48
2022-10-19T14:01:39.461Z,100446.52
2022-10-19T14:04:37.482Z,100454.98
2022-10-19T14:07:17.864Z,100441.05
2022-10-19T14:10:19.369Z,100456.33
2022-10-19T14:12:53.044Z,100460.45
2022-10-19T14:15:31.027Z,100462.93
2022-10-19T14:18:05.945Z,100459.85
2022-10-19T14:20:41.019Z,100465.72
2022-10-19T14:23:25.427Z,100457.66
2022-10-19T14:26:05.930Z,100462.34
2022-10-19T14:28:39.044Z,100462.41
2022-10-19T14:31:23.198Z,100454.52
2022-10-19T14:34:00.359Z,100461.48
2022-10-19T14:36:48.263Z,100451.20
2022-10-19T14:39:33.521Z,100452.76
2022-10-19T14:42:12.090Z,100448.95
2022-10-19T14:44:46.578Z,100447.14
2022-10-19T14:47:30.887Z,100444.91
2022-10-19T14:50:04.913Z,100435.38
2022-10-19T14:52:41.599Z,100435.20
2022-10-19T14:55:19.133Z,100432.73
2022-10-19T14:57:55.722Z,100432.02
2022-10-19T15:00:30.151Z,100434.21
2022-10-19T15:03:08.059Z,100428.39
2022-10-19T15:05:48.515Z,100426.30
2022-10-19T15:08:35.030Z,100416.60
2022-10-19T15:11:09.975Z,100424.10
2022-10-19T15:13:44.987Z,100420.39
2022-10-19T15:16:48.361Z,100422.60
2022-10-19T15:19:34.280Z,100413.00
2022-10-19T15:22:21.472Z,100410.52
2022-10-19T15:25:10.919Z,100417.33
2022-10-19T15:27:48.169Z,100413.52
2022-10-19T15:30:21.975Z,100422.09
2022-10-19T15:33:12.925Z,100422.27
2022-10-19T15:35:46.652Z,100422.53
2022-10-19T15:38:38.681Z,100421.39
2022-10-19T15:41:22.281Z,100420.06
2022-10-19T15:44:00.411Z,100416.23
2022-10-19T15:46:46.765Z,100416.34
2022-10-19T15:49:19.528Z,100414.23
2022-10-19T15:51:52.576Z,100422.30
2022-10-19T15:54:25.470Z,100424.64
2022-10-19T15:56:59.012Z,100423.30
2022-10-19T15:59:32.333Z,100422.89
2022-10-19T16:02:14.989Z,100427.27
2022-10-19T16:04:47.415Z,100428.98
2022-10-19T16:07:32.552Z,100429.92
2022-10-19T16:10:06.078Z,100421.60
2022-10-19T16:12:39.468Z,100421.38
2022-10-19T16:15:22.944Z,100431.89
2022-10-19T16:18:04.981Z,100427.01
2022-10-19T16:20:39.242Z,100421.59
2022-10-19T16:23:13.462Z,100429.29
2022-10-19T16:25:46.627Z,100431.77
2022-10-19T16:28:20.696Z,100434.13
2022-10-19T16:30:57.098Z,100435.48
2022-10-19T16:33:29.676Z,100443.06
2022-10-19T16:36:05.177Z,100441.17
2022-10-19T16:38:38.475Z,100442.45
2022-10-19T16:41:12.394Z,100431.73
2022-10-19T16:43:44.995Z,100434.13
2022-10-19T16:46:22.440Z,100445.38
2022-10-19T16:48:55.750Z,100441.98
2022-10-19T16:51:29.984Z,100441.21
2022-10-19T16:54:03.066Z,100438.00
2022-10-19T16:56:36.299Z,100431.04
2022-10-19T16:59:09.526Z,100444.13
2022-10-19T17:01:44.502Z,100459.98
2022-10-19T17:04:18.546Z,100463.36
2022-10-19T17:06:51.336Z,100461.02
2022-10-19T17:09:42.173Z,100469.16
2022-10-19T17:12:17.304Z,100467.57
2022-10-19T17:14:51.795Z,100468.35
2022-10-19T17:17:24.875Z,100470.57
2022-10-19T17:19:57.892Z,100475.42
2022-10-19T17:22:30.697Z,100474.16
2022-10-19T17:25:03.225Z,100481.59
2022-10-19T17:27:35.781Z,100481.73
2022-10-19T17:30:08.971Z,100485.27
2022-10-19T17:32:41.663Z,100488.82
2022-10-19T17:35:14.248Z,100482.90
2022-10-19T17:37:47.129Z,100477.52
2022-10-19T17:40:19.847Z,100488.25
2022-10-19T17:42:52.665Z,100493.30
2022-10-19T17:45:25.780Z,100493.74
2022-10-19T17:47:59.143Z,100486.11
2022-10-19T17:50:32.008Z,100499.98
2022-10-19T17:53:04.815Z,100495.61
2022-10-19T17:55:39.547Z,100493.21
2022-10-19T17:58:12.512Z,100495.88
2022-10-19T18:00:45.569Z,100488.23
2022-10-19T18:03:18.364Z,100484.04
2022-10-19T18:06:06.927Z,100476.41
2022-10-19T18:08:45.636Z,100489.53
2022-10-19T18:11:21.259Z,100503.77
2022-10-19T18:13:55.945Z,100505.59
2022-10-19T18:16:34.759Z,100508.45
2022-10-19T18:19:08.412Z,100510.71
2022-10-19T18:21:43.232Z,100514.17
2022-10-19T18:24:21.803Z,100512.65
2022-10-19T18:26:54.573Z,100505.69
2022-10-19T18:29:28.755Z,100510.60
2022-10-19T18:32:02.215Z,100510.09
2022-10-19T18:34:35.311Z,100515.92
2022-10-19T18:37:08.504Z,100517.68
2022-10-19T18:39:41.534Z,100523.01
2022-10-19T18:42:14.324Z,100527.34
2022-10-19T18:44:47.795Z,100521.33
2022-10-19T18:47:20.648Z,100517.95
2022-10-19T18:49:53.324Z,100534.80
2022-10-19T18:52:26.216Z,100541.81
2022-10-19T18:54:59.225Z,100533.91
2022-10-19T18:57:32.114Z,100530.44
2022-10-19T19:00:05.075Z,100538.52
2022-10-19T19:02:46.454Z,100541.27
2022-10-19T19:05:22.003Z,100549.23
2022-10-19T19:07:55.946Z,100558.05
2022-10-19T19:10:28.765Z,100558.40
2022-10-19T19:13:01.223Z,100561.54
2022-10-19T19:15:34.076Z,100563.80
2022-10-19T19:18:07.067Z,100563.02
2022-10-19T19:20:43.175Z,100561.89
2022-10-19T19:23:16.308Z,100553.80
2022-10-19T19:25:49.433Z,100557.81
2022-10-19T19:28:22.221Z,100560.94
2022-10-19T19:30:54.983Z,100565.35
2022-10-19T19:33:28.410Z,100571.92
2022-10-19T19:36:01.563Z,100579.26
2022-10-19T19:38:44.187Z,100575.11
2022-10-19T19:41:16.119Z,100587.75
2022-10-19T19:43:48.943Z,100590.40
2022-10-19T19:46:22.820Z,100594.51
2022-10-19T19:49:04.342Z,100601.95
2022-10-19T19:51:37.867Z,100592.45
2022-10-19T19:54:12.012Z,100598.33
2022-10-19T19:56:44.611Z,100601.33
2022-10-19T19:59:17.489Z,100598.48
2022-10-19T20:01:50.857Z,100598.56
2022-10-19T20:04:23.836Z,100604.61
2022-10-19T20:06:57.062Z,100609.05
2022-10-19T20:09:30.264Z,100604.15
2022-10-19T20:12:02.963Z,100606.45
2022-10-19T20:14:35.809Z,100596.02
2022-10-19T20:17:08.617Z,100610.27
2022-10-19T20:19:41.633Z,100609.73
2022-10-19T20:22:14.322Z,100610.89
2022-10-19T20:24:47.109Z,100614.10
2022-10-19T20:27:19.657Z,100622.20
2022-10-19T20:29:53.096Z,100624.55
2022-10-19T20:32:25.731Z,100626.14
2022-10-19T20:34:58.681Z,100625.45
2022-10-19T20:37:32.153Z,100618.05
2022-10-19T20:40:08.622Z,100621.02
2022-10-19T20:42:44.487Z,100612.95
2022-10-19T20:45:17.742Z,100609.96
2022-10-19T20:47:50.334Z,100610.15
2022-10-19T20:50:23.072Z,100618.20
2022-10-19T20:52:55.889Z,100619.27
2022-10-19T20:55:28.372Z,100619.39
2022-10-19T20:58:00.712Z,100612.02
2022-10-19T21:00:33.163Z,100624.38
2022-10-19T21:03:05.958Z,100629.39
2022-10-19T21:05:40.740Z,100635.45
2022-10-19T21:08:16.388Z,100633.13
2022-10-19T21:10:49.663Z,100628.81
2022-10-19T21:13:22.937Z,100628.58
2022-10-19T21:15:55.928Z,100627.45
2022-10-19T21:18:29.269Z,100616.94
2022-10-19T21:21:02.221Z,100620.27
2022-10-19T21:23:35.390Z,100617.56
2022-10-19T21:26:08.242Z,100615.70
2022-10-19T21:28:42.103Z,100606.65
2022-10-19T21:31:14.642Z,100603.53
2022-10-19T21:33:47.592Z,100602.76
2022-10-19T21:36:21.288Z,100617.05
2022-10-19T21:38:53.962Z,100617.08
2022-10-19T21:41:26.677Z,100619.30
2022-10-19T21:43:59.194Z,100616.52
2022-10-19T21:46:31.785Z,100608.13
2022-10-19T21:49:04.465Z,100617.55
2022-10-19T21:51:39.745Z,100618.98
2022-10-19T21:54:18.864Z,100618.23
2022-10-19T21:56:51.733Z,100620.59
2022-10-19T21:59:24.141Z,100611.73
2022-10-19T22:01:57.525Z,100614.19
2022-10-19T22:04:30.376Z,100609.14
2022-10-19T22:07:02.965Z,100607.81
2022-10-19T22:09:35.994Z,100606.38
2022-10-19T22:12:08.665Z,100601.77
2022-10-19T22:14:41.378Z,100611.16
2022-10-19T22:17:14.126Z,100616.00
2022-10-19T22:19:47.261Z,100617.48
2022-10-19T22:22:20.103Z,100610.70
2022-10-19T22:24:54.071Z,100611.63
2022-10-19T22:27:26.462Z,100619.30
2022-10-19T22:29:58.948Z,100616.54
2022-10-19T22:32:32.484Z,100610.01
2022-10-19T22:35:06.129Z,100611.38
2022-10-19T22:37:38.884Z,100598.80
2022-10-19T22:40:12.050Z,100614.08
2022-10-19T22:42:44.701Z,100611.29
2022-10-19T22:45:17.597Z,100608.48
2022-10-19T22:47:50.519Z,100607.48
2022-10-19T22:50:23.470Z,100598.32
2022-10-19T22:52:55.999Z,100599.42
2022-10-19T22:55:29.049Z,100610.58
2022-10-19T22:58:02.123Z,100614.82
2022-10-19T23:00:34.989Z,100616.98
2022-10-19T23:03:07.658Z,100617.84
2022-10-19T23:05:40.025Z,100617.74
2022-10-19T23:08:12.674Z,100618.14
2022-10-19T23:10:45.507Z,100621.57
2022-10-19T23:13:18.150Z,100620.28
2022-10-19T23:15:53.152Z,100614.91
2022-10-19T23:18:26.221Z,100613.27
2022-10-19T23:21:04.316Z,100630.39
2022-10-19T23:23:37.619Z,100633.18
2022-10-19T23:26:21.116Z,100630.63
2022-10-19T23:28:54.331Z,100632.35
2022-10-19T23:31:30.849Z,100632.34
2022-10-19T23:34:03.968Z,100633.36
2022-10-19T23:36:36.430Z,100634.41
2022-10-19T23:39:08.993Z,100639.80
2022-10-19T23:41:41.698Z,100644.45
2022-10-19T23:44:14.400Z,100640.59
2022-10-19T23:46:47.379Z,100640.69
2022-10-19T23:49:20.204Z,100650.12
2022-10-19T23:51:52.682Z,100658.45
2022-10-19T23:54:25.025Z,100665.55
2022-10-19T23:56:57.314Z,100665.30
2022-10-19T23:59:29.864Z,100664.78
